createdAt,value
2018-04-07T00:01:08.264Z,25.27
2018-04-07T00:03:34.552Z,22.30
2018-04-07T00:06:01.550Z,23.83
2018-04-07T00:08:27.869Z,23.93
2018-04-07T00:10:54.145Z,29.83
2018-04-07T00:13:20.418Z,25.93
2018-04-07T00:15:46.780Z,24.40
2018-04-07T00:18:16.809Z,28.87
2018-04-07T00:20:43.087Z,22.23
2018-04-07T00:23:09.595Z,25.40
2018-04-07T00:25:35.956Z,23.67
2018-04-07T00:28:02.228Z,26.37
2018-04-07T00:30:28.512Z,23.87
2018-04-07T00:32:54.836Z,23.97
2018-04-07T00:35:21.133Z,25.93
2018-04-07T00:37:47.529Z,22.13
2018-04-07T00:40:13.849Z,20.33
2018-04-07T00:42:40.164Z,46.47
2018-04-07T00:45:06.666Z,36.27
2018-04-07T00:47:32.992Z,35.93
2018-04-07T00:49:59.331Z,29.33
2018-04-07T00:52:25.669Z,28.97
2018-04-07T00:54:52.005Z,23.53
2018-04-07T00:57:18.330Z,31.80
2018-04-07T00:59:44.669Z,30.27
2018-04-07T01:02:11.026Z,32.00
2018-04-07T01:04:40.292Z,29.03
2018-04-07T01:07:06.567Z,31.70
2018-04-07T01:09:32.885Z,33.80
2018-04-07T01:11:59.209Z,29.20
2018-04-07T01:14:25.524Z,34.23
2018-04-07T01:16:51.849Z,21.23
2018-04-07T01:19:20.121Z,153.87
2018-04-07T01:21:46.396Z,27.27
2018-04-07T01:24:12.773Z,46.53
2018-04-07T01:26:39.054Z,49.30
2018-04-07T01:29:05.325Z,38.63
2018-04-07T01:31:31.658Z,30.73
2018-04-07T01:33:57.933Z,34.87
2018-04-07T01:36:24.205Z,34.50
2018-04-07T01:38:50.518Z,29.43
2018-04-07T01:41:16.790Z,27.80
2018-04-07T01:43:43.080Z,27.27
2018-04-07T01:46:09.451Z,24.13
2018-04-07T01:48:35.725Z,22.67
2018-04-07T01:51:02.000Z,20.17
2018-04-07T01:53:28.521Z,18.80
2018-04-07T01:55:54.833Z,27.53
2018-04-07T01:58:21.126Z,30.97
2018-04-07T02:00:47.400Z,35.93
2018-04-07T02:03:13.737Z,31.60
2018-04-07T02:05:40.041Z,25.20
2018-04-07T02:08:06.442Z,31.67
2018-04-07T02:10:32.720Z,40.17
2018-04-07T02:12:59.004Z,53.00
2018-04-07T02:15:25.494Z,41.80
2018-04-07T02:17:51.825Z,35.67
2018-04-07T02:20:18.332Z,33.03
2018-04-07T02:22:44.608Z,34.27
2018-04-07T02:25:10.918Z,32.87
2018-04-07T02:27:38.887Z,30.33
2018-04-07T02:30:05.171Z,31.87
2018-04-07T02:32:31.446Z,50.70
2018-04-07T02:34:58.064Z,44.50
2018-04-07T02:37:24.438Z,51.93
2018-04-07T02:39:50.716Z,21.73
2018-04-07T02:42:17.006Z,21.23
2018-04-07T02:44:43.477Z,18.93
2018-04-07T02:47:09.762Z,17.90
2018-04-07T02:49:36.039Z,20.73
2018-04-07T02:52:02.785Z,22.50
2018-04-07T02:54:29.077Z,19.73
2018-04-07T02:56:55.414Z,20.10
2018-04-07T02:59:21.777Z,21.97
2018-04-07T03:01:48.122Z,19.83
2018-04-07T03:04:14.518Z,110.27
2018-04-07T03:06:41.052Z,35.20
2018-04-07T03:09:07.357Z,27.93
2018-04-07T03:11:33.733Z,28.77
2018-04-07T03:14:00.010Z,29.87
2018-04-07T03:16:26.288Z,29.20
2018-04-07T03:18:52.615Z,28.73
2018-04-07T03:21:18.891Z,24.60
2018-04-07T03:23:45.172Z,36.27
2018-04-07T03:26:11.662Z,24.23
2018-04-07T03:28:37.952Z,21.87
2018-04-07T03:31:04.326Z,22.87
2018-04-07T03:33:31.591Z,16.03
2018-04-07T03:35:57.866Z,19.20
2018-04-07T03:38:24.196Z,18.30
2018-04-07T03:40:52.998Z,17.40
2018-04-07T03:43:19.275Z,13.63
2018-04-07T03:45:45.602Z,16.33
2018-04-07T03:48:12.113Z,15.93
2018-04-07T03:50:38.445Z,15.87
2018-04-07T03:53:04.772Z,15.77
2018-04-07T03:55:31.043Z,16.33
2018-04-07T03:57:57.436Z,17.90
2018-04-07T04:00:23.867Z,53.80
2018-04-07T04:02:50.150Z,24.33
2018-04-07T04:05:16.469Z,26.33
2018-04-07T04:07:43.652Z,18.73
2018-04-07T04:10:09.950Z,28.40
2018-04-07T04:12:36.216Z,18.93
2018-04-07T04:15:02.567Z,22.53
2018-04-07T04:17:28.890Z,19.37
2018-04-07T04:19:56.104Z,31.80
2018-04-07T04:22:22.492Z,28.70
2018-04-07T04:24:48.768Z,34.73
2018-04-07T04:27:15.052Z,67.43
2018-04-07T04:29:41.397Z,85.97
2018-04-07T04:32:07.673Z,49.57
2018-04-07T04:34:33.964Z,28.70
2018-04-07T04:37:01.562Z,28.93
2018-04-07T04:39:27.996Z,21.30
2018-04-07T04:41:54.321Z,44.57
2018-04-07T04:44:20.610Z,154.83
2018-04-07T04:46:46.924Z,105.63
2018-04-07T04:49:13.262Z,94.60
2018-04-07T04:51:39.562Z,92.37
2018-04-07T04:54:05.881Z,94.07
2018-04-07T04:56:32.177Z,136.23
2018-04-07T04:58:58.462Z,149.13
2018-04-07T05:01:24.837Z,148.37
2018-04-07T05:03:51.119Z,265.33
2018-04-07T05:06:17.422Z,250.80
2018-04-07T05:08:46.469Z,198.87
2018-04-07T05:11:12.739Z,116.87
2018-04-07T05:13:39.005Z,110.87
2018-04-07T05:16:05.378Z,109.83
2018-04-07T05:18:31.696Z,128.77
2018-04-07T05:20:57.998Z,158.67
2018-04-07T05:23:24.808Z,136.23
2018-04-07T05:25:51.106Z,138.67
2018-04-07T05:28:17.394Z,210.33
2018-04-07T05:30:43.756Z,84.83
2018-04-07T05:33:10.025Z,71.63
2018-04-07T05:35:36.307Z,57.60
2018-04-07T05:38:02.858Z,59.13
2018-04-07T05:40:29.175Z,73.50
2018-04-07T05:42:55.461Z,93.43
2018-04-07T05:45:21.929Z,77.30
2018-04-07T05:47:48.234Z,54.93
2018-04-07T05:50:14.640Z,45.43
2018-04-07T05:52:40.928Z,48.07
2018-04-07T05:55:07.224Z,61.73
2018-04-07T05:57:33.589Z,116.10
2018-04-07T05:59:59.863Z,64.37
2018-04-07T06:02:26.146Z,125.57
2018-04-07T06:04:52.651Z,111.60
2018-04-07T06:07:18.923Z,80.47
2018-04-07T06:09:45.485Z,87.97
2018-04-07T06:12:11.819Z,78.30
2018-04-07T06:14:38.154Z,128.60
2018-04-07T06:17:04.489Z,164.23
2018-04-07T06:19:30.763Z,155.60
2018-04-07T06:21:57.044Z,424.70
2018-04-07T06:24:23.428Z,590.33
2018-04-07T06:26:49.717Z,135.47
2018-04-07T06:29:16.001Z,39.70
2018-04-07T06:31:42.456Z,44.13
2018-04-07T06:34:08.801Z,43.30
2018-04-07T06:36:35.086Z,51.70
2018-04-07T06:39:01.424Z,61.87
2018-04-07T06:41:27.803Z,54.93
2018-04-07T06:43:54.077Z,53.93
2018-04-07T06:46:20.401Z,63.70
2018-04-07T06:48:46.722Z,88.43
2018-04-07T06:51:13.005Z,60.27
2018-04-07T06:53:42.322Z,53.03
2018-04-07T06:56:08.832Z,118.60
2018-04-07T06:58:35.109Z,103.83
2018-04-07T07:01:01.484Z,90.57
2018-04-07T07:03:27.756Z,91.57
2018-04-07T07:05:54.040Z,89.50
2018-04-07T07:08:20.472Z,68.97
2018-04-07T07:10:52.902Z,42.90
2018-04-07T07:13:19.170Z,54.83
2018-04-07T07:15:45.384Z,68.97
2018-04-07T07:18:11.866Z,57.83
2018-04-07T07:20:38.261Z,55.77
2018-04-07T07:23:04.475Z,46.57
2018-04-07T07:25:30.713Z,45.37
2018-04-07T07:27:57.133Z,91.50
2018-04-07T07:30:23.331Z,65.97
2018-04-07T07:32:49.550Z,62.57
2018-04-07T07:35:15.789Z,209.50
2018-04-07T07:37:41.982Z,210.00
2018-04-07T07:40:08.185Z,244.30
2018-04-07T07:42:34.481Z,146.97
2018-04-07T07:45:00.688Z,134.70
2018-04-07T07:47:26.910Z,75.07
2018-04-07T07:49:53.342Z,57.87
2018-04-07T07:52:19.532Z,45.10
2018-04-07T07:54:45.768Z,54.23
2018-04-07T07:57:11.960Z,81.87
2018-04-07T07:59:38.161Z,264.23
2018-04-07T08:02:04.449Z,51.20
2018-04-07T08:04:30.696Z,23.97
2018-04-07T08:06:56.886Z,26.67
2018-04-07T08:09:23.636Z,35.77
2018-04-07T08:11:50.109Z,19.03
2018-04-07T08:14:16.306Z,35.90
2018-04-07T08:16:42.557Z,83.50
2018-04-07T08:19:08.767Z,74.50
2018-04-07T08:21:34.948Z,160.87
2018-04-07T08:24:01.245Z,123.97
2018-04-07T08:26:27.452Z,153.47
2018-04-07T08:28:53.842Z,124.00
2018-04-07T08:31:20.205Z,99.53
2018-04-07T08:33:46.498Z,88.83
2018-04-07T08:36:12.790Z,92.53
2018-04-07T08:38:39.326Z,89.40
2018-04-07T08:41:05.661Z,88.20
2018-04-07T08:43:32.852Z,74.83
2018-04-07T08:45:59.122Z,65.83
2018-04-07T08:48:25.439Z,60.87
2018-04-07T08:50:51.791Z,46.07
2018-04-07T08:53:18.197Z,37.03
2018-04-07T08:55:44.488Z,38.73
2018-04-07T08:58:11.073Z,40.23
2018-04-07T09:00:37.433Z,43.07
2018-04-07T09:03:03.752Z,35.73
2018-04-07T09:05:33.931Z,30.53
2018-04-07T09:08:00.291Z,32.87
2018-04-07T09:10:26.618Z,37.63
2018-04-07T09:12:53.021Z,29.53
2018-04-07T09:15:19.363Z,23.87
2018-04-07T09:17:45.656Z,27.53
2018-04-07T09:20:12.197Z,24.03
2018-04-07T09:22:38.497Z,23.93
2018-04-07T09:25:04.849Z,20.27
2018-04-07T09:27:31.147Z,16.70
2018-04-07T09:29:57.921Z,18.93
2018-04-07T09:32:24.267Z,18.37
2018-04-07T09:34:50.536Z,31.27
2018-04-07T09:37:16.912Z,21.00
2018-04-07T09:39:43.199Z,22.53
2018-04-07T09:42:09.531Z,47.67
2018-04-07T09:44:36.180Z,33.60
2018-04-07T09:47:02.503Z,81.80
2018-04-07T09:49:28.855Z,26.30
2018-04-07T09:51:55.137Z,8.00
2018-04-07T09:54:21.436Z,6.03
2018-04-07T09:56:47.813Z,47.17
2018-04-07T09:59:14.112Z,17.67
2018-04-07T10:01:41.291Z,15.27
2018-04-07T10:04:07.622Z,11.23
2018-04-07T10:06:33.914Z,7.93
2018-04-07T10:09:00.229Z,7.53
2018-04-07T10:11:27.598Z,5.87
2018-04-07T10:13:53.910Z,30.10
2018-04-07T10:16:20.206Z,9.03
2018-04-07T10:18:46.624Z,5.63
2018-04-07T10:21:12.920Z,5.90
2018-04-07T10:23:39.294Z,4.13
2018-04-07T10:26:05.651Z,13.03
2018-04-07T10:28:31.937Z,7.73
2018-04-07T10:30:58.221Z,13.97
2018-04-07T10:33:24.557Z,4.67
2018-04-07T10:35:50.875Z,4.30
2018-04-07T10:38:17.179Z,7.17
2018-04-07T10:40:43.619Z,12.87
2018-04-07T10:43:10.676Z,8.17
2018-04-07T10:45:36.956Z,24.40
2018-04-07T10:48:03.325Z,22.63
2018-04-07T10:50:29.620Z,34.20
2018-04-07T10:52:55.899Z,33.13
2018-04-07T10:55:22.228Z,26.47
2018-04-07T10:57:48.508Z,12.20
2018-04-07T11:00:14.794Z,8.27
2018-04-07T11:02:41.161Z,23.07
2018-04-07T11:05:07.482Z,10.80
2018-04-07T11:07:33.769Z,12.87
2018-04-07T11:10:00.272Z,16.27
2018-04-07T11:12:26.807Z,18.57
2018-04-07T11:14:53.202Z,36.17
2018-04-07T11:17:19.890Z,13.00
2018-04-07T11:19:46.185Z,28.07
2018-04-07T11:22:12.484Z,18.93
2018-04-07T11:24:39.021Z,31.80
2018-04-07T11:27:05.528Z,62.60
2018-04-07T11:29:32.038Z,10.17
2018-04-07T11:31:58.321Z,5.77
2018-04-07T11:34:24.689Z,11.13
2018-04-07T11:36:51.005Z,9.23
2018-04-07T11:39:17.290Z,16.77
2018-04-07T11:41:43.580Z,10.40
2018-04-07T11:44:10.108Z,4.27
2018-04-07T11:46:36.390Z,6.47
2018-04-07T11:49:02.728Z,8.23
2018-04-07T11:51:29.012Z,5.33
2018-04-07T11:53:55.359Z,7.63
2018-04-07T11:56:21.652Z,27.03
2018-04-07T11:58:48.013Z,13.50
2018-04-07T12:01:14.494Z,15.30
2018-04-07T12:03:40.780Z,14.03
2018-04-07T12:06:07.072Z,15.20
2018-04-07T12:08:33.576Z,24.80
2018-04-07T12:11:00.196Z,14.90
2018-04-07T12:13:27.687Z,12.83
2018-04-07T12:15:54.018Z,10.10
2018-04-07T12:18:20.318Z,14.57
2018-04-07T12:20:46.673Z,10.43
2018-04-07T12:23:12.946Z,13.00
2018-04-07T12:25:39.312Z,29.13
2018-04-07T12:28:05.720Z,31.03
2018-04-07T12:30:32.013Z,14.17
2018-04-07T12:32:59.310Z,22.70
2018-04-07T12:35:25.674Z,10.17
2018-04-07T12:37:52.018Z,8.03
2018-04-07T12:40:18.300Z,19.63
2018-04-07T12:42:44.622Z,36.90
2018-04-07T12:45:10.909Z,10.83
2018-04-07T12:47:37.292Z,11.00
2018-04-07T12:50:03.628Z,26.90
2018-04-07T12:52:29.909Z,9.43
2018-04-07T12:54:56.493Z,15.87
2018-04-07T12:57:23.395Z,13.60
2018-04-07T12:59:49.741Z,18.57
2018-04-07T13:02:16.052Z,14.60
2018-04-07T13:04:42.420Z,7.43
2018-04-07T13:07:08.801Z,11.10
2018-04-07T13:09:35.113Z,7.07
2018-04-07T13:12:01.382Z,16.33
2018-04-07T13:14:27.716Z,8.90
2018-04-07T13:16:54.060Z,10.53
2018-04-07T13:19:20.333Z,9.23
2018-04-07T13:21:46.660Z,16.13
2018-04-07T13:24:12.933Z,21.47
2018-04-07T13:26:39.213Z,13.77
2018-04-07T13:29:05.820Z,8.60
2018-04-07T13:31:32.115Z,13.37
2018-04-07T13:33:58.511Z,19.03
2018-04-07T13:36:24.802Z,18.17
2018-04-07T13:38:51.169Z,7.87
2018-04-07T13:41:17.457Z,7.30
2018-04-07T13:43:43.733Z,6.80
2018-04-07T13:46:13.102Z,2.13
2018-04-07T13:48:39.396Z,11.57
2018-04-07T13:51:05.723Z,6.30
2018-04-07T13:53:32.067Z,6.17
2018-04-07T13:55:58.384Z,5.63
2018-04-07T13:58:24.682Z,5.23
2018-04-07T14:00:51.126Z,2.07
2018-04-07T14:03:17.422Z,4.53
2018-04-07T14:05:43.719Z,3.63
2018-04-07T14:08:10.222Z,3.33
2018-04-07T14:10:36.541Z,4.63
2018-04-07T14:13:02.848Z,5.50
2018-04-07T14:15:29.137Z,9.23
2018-04-07T14:17:55.519Z,3.87
2018-04-07T14:20:21.803Z,3.87
2018-04-07T14:22:50.546Z,3.03
2018-04-07T14:25:16.933Z,4.57
2018-04-07T14:27:43.209Z,5.30
2018-04-07T14:30:09.600Z,5.33
2018-04-07T14:32:36.165Z,4.93
2018-04-07T14:35:02.465Z,4.27
2018-04-07T14:37:28.870Z,2.80
2018-04-07T14:39:55.158Z,10.97
2018-04-07T14:42:21.433Z,19.87
2018-04-07T14:44:47.786Z,11.87
2018-04-07T14:47:14.064Z,13.47
2018-04-07T14:49:40.465Z,7.27
2018-04-07T14:52:06.840Z,3.90
2018-04-07T14:54:33.135Z,10.30
2018-04-07T14:56:59.512Z,4.50
2018-04-07T14:59:25.806Z,6.73
2018-04-07T15:01:52.105Z,12.13
2018-04-07T15:04:21.554Z,13.33
2018-04-07T15:06:47.896Z,11.50
2018-04-07T15:09:14.229Z,9.43
2018-04-07T15:11:40.503Z,18.10
2018-04-07T15:14:06.842Z,14.47
2018-04-07T15:16:33.147Z,10.20
2018-04-07T15:19:02.769Z,7.53
2018-04-07T15:21:29.044Z,8.53
2018-04-07T15:23:55.336Z,7.10
2018-04-07T15:26:21.754Z,7.43
2018-04-07T15:28:48.068Z,5.83
2018-04-07T15:31:14.597Z,10.57
2018-04-07T15:33:41.114Z,14.33
2018-04-07T15:36:07.501Z,16.37
2018-04-07T15:38:33.907Z,12.57
2018-04-07T15:41:00.215Z,10.43
2018-04-07T15:43:26.576Z,11.17
2018-04-07T15:45:52.854Z,9.57
2018-04-07T15:48:19.374Z,10.07
2018-04-07T15:50:45.713Z,12.17
2018-04-07T15:53:12.074Z,26.20
2018-04-07T15:55:38.589Z,15.40
2018-04-07T15:58:04.943Z,38.43
2018-04-07T16:00:31.229Z,61.13
2018-04-07T16:02:57.509Z,58.90
2018-04-07T16:05:23.889Z,42.40
2018-04-07T16:07:55.883Z,54.87
2018-04-07T16:10:22.549Z,77.27
2018-04-07T16:12:48.901Z,90.00
2018-04-07T16:15:15.416Z,105.93
2018-04-07T16:17:41.716Z,73.90
2018-04-07T16:20:08.260Z,52.33
2018-04-07T16:22:34.719Z,42.53
2018-04-07T16:25:01.014Z,38.87
2018-04-07T16:27:27.324Z,31.70
2018-04-07T16:29:53.733Z,30.97
2018-04-07T16:32:20.084Z,22.40
2018-04-07T16:34:46.437Z,18.53
2018-04-07T16:37:13.417Z,28.97
2018-04-07T16:39:39.748Z,44.67
2018-04-07T16:42:06.117Z,39.93
2018-04-07T16:44:32.413Z,48.73
2018-04-07T16:46:58.755Z,47.47
2018-04-07T16:49:25.121Z,47.70
2018-04-07T16:51:51.414Z,55.30
2018-04-07T16:54:18.107Z,53.30
2018-04-07T16:56:44.450Z,59.00
2018-04-07T16:59:10.744Z,62.70
2018-04-07T17:01:37.965Z,55.50
2018-04-07T17:04:04.342Z,30.60
2018-04-07T17:06:30.631Z,55.63
2018-04-07T17:08:56.958Z,47.53
2018-04-07T17:11:23.408Z,60.03
2018-04-07T17:13:49.727Z,141.00
2018-04-07T17:16:16.016Z,132.17
2018-04-07T17:18:42.327Z,77.97
2018-04-07T17:21:08.681Z,42.73
2018-04-07T17:23:34.996Z,200.67
2018-04-07T17:26:01.362Z,59.07
2018-04-07T17:28:27.648Z,56.73
2018-04-07T17:30:53.943Z,114.83
2018-04-07T17:33:20.429Z,258.37
2018-04-07T17:35:46.823Z,59.33
2018-04-07T17:38:13.122Z,148.43
2018-04-07T17:40:39.416Z,138.83
2018-04-07T17:43:05.999Z,160.77
2018-04-07T17:45:32.280Z,129.53
2018-04-07T17:47:58.596Z,129.67
2018-04-07T17:50:25.021Z,55.80
2018-04-07T17:52:51.366Z,67.97
2018-04-07T17:55:17.736Z,60.83
2018-04-07T17:57:44.034Z,58.67
2018-04-07T18:00:10.316Z,102.97
2018-04-07T18:02:36.689Z,85.33
2018-04-07T18:05:03.031Z,74.20
2018-04-07T18:07:29.305Z,130.73
2018-04-07T18:09:55.644Z,84.87
2018-04-07T18:12:22.066Z,88.30
2018-04-07T18:14:48.352Z,87.00
2018-04-07T18:17:14.693Z,80.20
2018-04-07T18:19:41.074Z,73.17
2018-04-07T18:22:07.379Z,76.47
2018-04-07T18:24:34.560Z,78.73
2018-04-07T18:27:00.901Z,100.50
2018-04-07T18:29:27.210Z,155.90
2018-04-07T18:31:53.494Z,158.80
2018-04-07T18:34:19.881Z,100.07
2018-04-07T18:36:46.255Z,52.57
2018-04-07T18:39:12.535Z,32.50
2018-04-07T18:41:38.865Z,44.43
2018-04-07T18:44:05.294Z,97.40
2018-04-07T18:46:31.625Z,31.00
2018-04-07T18:48:57.896Z,28.77
2018-04-07T18:51:24.284Z,36.17
2018-04-07T18:53:50.648Z,48.80
2018-04-07T18:56:16.959Z,59.60
2018-04-07T18:58:43.390Z,72.43
2018-04-07T19:01:09.814Z,89.40
2018-04-07T19:03:36.098Z,54.87
2018-04-07T19:06:02.465Z,63.20
2018-04-07T19:08:28.818Z,104.33
2018-04-07T19:10:55.261Z,66.90
2018-04-07T19:13:23.416Z,66.63
2018-04-07T19:15:49.697Z,80.47
2018-04-07T19:18:16.062Z,95.80
2018-04-07T19:20:42.348Z,98.73
2018-04-07T19:23:08.627Z,94.87
2018-04-07T19:25:34.981Z,102.50
2018-04-07T19:28:01.355Z,128.73
2018-04-07T19:30:27.736Z,156.47
2018-04-07T19:32:54.126Z,208.47
2018-04-07T19:35:20.473Z,155.77
2018-04-07T19:37:46.834Z,56.70
2018-04-07T19:40:13.265Z,428.50
2018-04-07T19:42:39.544Z,283.03
2018-04-07T19:45:05.829Z,254.47
2018-04-07T19:47:33.017Z,122.50
2018-04-07T19:49:59.287Z,100.77
2018-04-07T19:52:25.568Z,156.73
2018-04-07T19:54:51.997Z,155.63
2018-04-07T19:57:18.286Z,102.07
2018-04-07T19:59:44.580Z,63.27
2018-04-07T20:02:10.939Z,64.67
2018-04-07T20:04:37.226Z,53.93
2018-04-07T20:07:03.536Z,57.27
2018-04-07T20:09:29.954Z,88.90
2018-04-07T20:11:56.448Z,148.63
2018-04-07T20:14:23.047Z,173.00
2018-04-07T20:16:49.430Z,149.73
2018-04-07T20:19:15.783Z,70.00
2018-04-07T20:21:42.072Z,169.77
2018-04-07T20:24:08.461Z,213.70
2018-04-07T20:26:34.728Z,101.53
2018-04-07T20:29:01.012Z,47.97
2018-04-07T20:31:27.347Z,27.97
2018-04-07T20:33:53.630Z,47.63
2018-04-07T20:36:20.092Z,58.77
2018-04-07T20:38:46.376Z,107.20
2018-04-07T20:41:12.652Z,99.77
2018-04-07T20:43:38.968Z,123.63
2018-04-07T20:46:05.249Z,140.27
2018-04-07T20:48:31.532Z,169.10
2018-04-07T20:50:57.850Z,146.13
2018-04-07T20:53:24.121Z,142.07
2018-04-07T20:55:50.425Z,120.43
2018-04-07T20:58:16.801Z,73.30
2018-04-07T21:00:43.088Z,70.73
2018-04-07T21:03:09.370Z,73.50
2018-04-07T21:05:35.700Z,69.77
2018-04-07T21:08:01.987Z,66.77
2018-04-07T21:10:32.270Z,93.60
2018-04-07T21:12:58.679Z,99.90
2018-04-07T21:15:25.018Z,53.73
2018-04-07T21:17:51.450Z,56.17
2018-04-07T21:20:17.727Z,55.73
2018-04-07T21:22:44.018Z,66.43
2018-04-07T21:25:13.372Z,72.17
2018-04-07T21:27:39.658Z,63.23
2018-04-07T21:30:05.963Z,73.80
2018-04-07T21:32:32.364Z,95.33
2018-04-07T21:34:58.668Z,80.97
2018-04-07T21:37:24.949Z,66.87
2018-04-07T21:39:51.404Z,75.10
2018-04-07T21:42:17.862Z,58.33
2018-04-07T21:44:44.145Z,37.90
2018-04-07T21:47:10.420Z,30.13
2018-04-07T21:49:36.772Z,45.33
2018-04-07T21:52:03.056Z,39.50
2018-04-07T21:54:29.365Z,45.90
2018-04-07T21:56:55.757Z,46.90
2018-04-07T21:59:22.042Z,46.20
2018-04-07T22:01:48.411Z,47.07
2018-04-07T22:04:14.704Z,52.77
2018-04-07T22:06:41.025Z,60.27
2018-04-07T22:09:07.414Z,48.87
2018-04-07T22:14:17.711Z,54.63
2018-04-07T22:16:44.149Z,55.93
2018-04-07T22:19:10.465Z,55.60
2018-04-07T22:21:36.939Z,50.93
2018-04-07T22:24:03.221Z,56.60
2018-04-07T22:26:29.556Z,52.83
2018-04-07T22:28:55.893Z,42.13
2018-04-07T22:31:22.220Z,33.60
2018-04-07T22:33:48.535Z,30.30
2018-04-07T22:36:14.988Z,23.30
2018-04-07T22:38:42.357Z,24.17
2018-04-07T22:41:08.630Z,18.90
2018-04-07T22:43:34.945Z,21.77
2018-04-07T22:46:03.195Z,21.73
2018-04-07T22:48:29.474Z,20.63
2018-04-07T22:50:55.816Z,34.93
2018-04-07T22:53:22.876Z,34.67
2018-04-07T22:55:49.238Z,35.07
2018-04-07T22:58:15.532Z,40.90
2018-04-07T23:00:41.919Z,59.17
2018-04-07T23:03:08.233Z,53.03
2018-04-07T23:05:34.536Z,47.57
2018-04-07T23:08:00.869Z,32.20
2018-04-07T23:10:27.189Z,46.00
2018-04-07T23:12:53.513Z,49.57
2018-04-07T23:15:19.797Z,56.67
2018-04-07T23:17:46.178Z,46.63
2018-04-07T23:20:12.461Z,31.10
2018-04-07T23:22:38.742Z,39.57
2018-04-07T23:25:05.112Z,35.80
2018-04-07T23:27:31.371Z,30.97
2018-04-07T23:29:57.645Z,30.80
2018-04-07T23:32:24.020Z,31.47
2018-04-07T23:34:50.301Z,30.50
2018-04-07T23:37:16.610Z,44.10
2018-04-07T23:39:43.005Z,40.03
2018-04-07T23:42:09.281Z,37.67
2018-04-07T23:44:35.704Z,33.93
2018-04-07T23:47:01.985Z,34.33
2018-04-07T23:49:28.270Z,32.37
2018-04-07T23:51:54.610Z,31.00
2018-04-07T23:54:20.893Z,37.50
2018-04-07T23:56:47.427Z,48.67
2018-04-07T23:59:13.734Z,36.47
